Stuart, IA

10:54 AM CST on December 29, 2014 (GMT -0600)
Audubon County | Change Station
CLOSE
Current Station
Airport
Location: Audubon,
Elevation: 1286 ft
Nearby Weather Stations

Elev 1286 ft 41.70 °N, 94.92 °W | Updated 19 minutes ago

Overcast
Overcast
19 °F
Feels Like 6 °F
N
14
Wind Variable Wind from NNE
Gusts 22 mph

Today
High -- | Low -- °F
--% Chance of Precip.
Yesterday
High -- | Low -- °F
Precip. -- in
7:43 AM 4:55 PM
First Quarter, 60% visible
Pressure 30.43 in
Visibility 7.0 miles
Clouds Scattered Clouds 1800 ft
Windchill 6 °F
Dew Point 14 °F
Humidity 80%
Rainfall 0.00 in
Snow Depth Not available.
UV 1 out of 12
Pollen .10 out of 12
Air Quality Not available.
Flu Activity Not available.
METAR KADU 291635Z AUTO 03012G19KT 7SM SCT018 M07/M10 A3043 RMK AO2

More Conditions Fewer Conditions

Pressure 30.43 in
Visibility 7.0 miles
Clouds Scattered Clouds 1800 ft
Windchill 6 °F
Dew Point 14 °F
Humidity 80%
Rainfall 0.00 in
Snow Depth Not available.
UV 1 out of 12
Pollen .10 out of 12
Air Quality Not available.
Flu Activity Not available.
METAR KADU 291635Z AUTO 03012G19KT 7SM SCT018 M07/M10 A3043 RMK AO2

More Conditions Fewer Conditions

10-Day Weather Forecast

Almanac

Astronomy

Dec. 29, 2014 Rise Set
Actual Time
Civil Twilight
Nautical Twilight
Astronomical Twilight
Moon
Length of Visible Light
Length of Day
Tomorrow will be .
, % of the Moon is Illuminated

Today's Extremes

State Highs State Lows

Community

WunderPhotos

Upload Photos

1,781,648 photos uploaded!

WunderBlogs® & News

Nearby

Air Quality

  Air Quality AQ Index Pollutant
Not available.

Snow Depth

Station Depth Elevation

Earthquake Activity

City Distance Mag. Time & Date
Minimum magnitude displayed is 2.5.

Coastal Water Temperatures

Place Temperature

Nearby Weather Stations